sensor_id;sensor_type;location;lat;lon;timestamp;P1;durP1;ratioP1;P2;durP2;ratioP2
52438;SDS011;38359;53.150;6.504;2023-03-24T00:07:53;22.50;;;6.93;;
52438;SDS011;38359;53.150;6.504;2023-03-24T00:18:19;24.33;;;6.82;;
52438;SDS011;38359;53.150;6.504;2023-03-24T00:28:47;19.88;;;7.03;;
52438;SDS011;38359;53.150;6.504;2023-03-24T00:39:13;19.88;;;7.10;;
52438;SDS011;38359;53.150;6.504;2023-03-24T00:49:42;18.13;;;6.40;;
52438;SDS011;38359;53.150;6.504;2023-03-24T01:00:11;21.13;;;6.93;;
52438;SDS011;38359;53.150;6.504;2023-03-24T01:10:38;14.30;;;6.18;;
52438;SDS011;38359;53.150;6.504;2023-03-24T01:21:09;16.40;;;7.05;;
52438;SDS011;38359;53.150;6.504;2023-03-24T01:31:36;17.70;;;5.85;;
52438;SDS011;38359;53.150;6.504;2023-03-24T01:42:02;11.52;;;5.97;;
52438;SDS011;38359;53.150;6.504;2023-03-24T01:52:29;16.05;;;6.25;;
52438;SDS011;38359;53.150;6.504;2023-03-24T02:02:58;12.45;;;5.95;;
52438;SDS011;38359;53.150;6.504;2023-03-24T02:13:32;11.75;;;5.45;;
52438;SDS011;38359;53.150;6.504;2023-03-24T02:24:05;11.20;;;5.63;;
52438;SDS011;38359;53.150;6.504;2023-03-24T02:46:27;11.32;;;5.38;;
52438;SDS011;38359;53.150;6.504;2023-03-24T03:08:08;12.32;;;5.15;;
52438;SDS011;38359;53.150;6.504;2023-03-24T03:18:39;10.45;;;4.22;;
52438;SDS011;38359;53.150;6.504;2023-03-24T03:29:18;6.05;;;4.30;;
52438;SDS011;38359;53.150;6.504;2023-03-24T03:39:51;5.40;;;2.50;;
52438;SDS011;38359;53.150;6.504;2023-03-24T03:50:23;8.30;;;3.00;;
52438;SDS011;38359;53.150;6.504;2023-03-24T04:00:49;9.30;;;3.22;;
52438;SDS011;38359;53.150;6.504;2023-03-24T04:11:28;9.85;;;2.50;;
52438;SDS011;38359;53.150;6.504;2023-03-24T04:22:21;15.80;;;2.45;;
52438;SDS011;38359;53.150;6.504;2023-03-24T04:33:32;11.23;;;2.20;;
52438;SDS011;38359;53.150;6.504;2023-03-24T04:44:27;12.77;;;2.35;;
52438;SDS011;38359;53.150;6.504;2023-03-24T04:54:56;14.40;;;2.58;;
52438;SDS011;38359;53.150;6.504;2023-03-24T05:05:23;10.63;;;2.20;;
52438;SDS011;38359;53.150;6.504;2023-03-24T05:15:51;15.40;;;2.55;;
52438;SDS011;38359;53.150;6.504;2023-03-24T05:26:17;14.25;;;3.03;;
52438;SDS011;38359;53.150;6.504;2023-03-24T05:36:43;22.17;;;3.30;;
52438;SDS011;38359;53.150;6.504;2023-03-24T05:47:09;26.05;;;3.97;;
52438;SDS011;38359;53.150;6.504;2023-03-24T05:57:36;20.52;;;3.88;;
52438;SDS011;38359;53.150;6.504;2023-03-24T06:08:02;21.90;;;4.20;;
52438;SDS011;38359;53.150;6.504;2023-03-24T06:18:28;24.02;;;2.72;;
52438;SDS011;38359;53.150;6.504;2023-03-24T06:28:54;20.30;;;3.13;;
52438;SDS011;38359;53.150;6.504;2023-03-24T06:39:20;25.05;;;3.67;;
52438;SDS011;38359;53.150;6.504;2023-03-24T06:49:47;21.88;;;3.25;;
52438;SDS011;38359;53.150;6.504;2023-03-24T07:00:13;24.75;;;3.63;;
52438;SDS011;38359;53.150;6.504;2023-03-24T07:10:40;28.67;;;4.45;;
52438;SDS011;38359;53.150;6.504;2023-03-24T07:21:06;21.63;;;3.55;;
52438;SDS011;38359;53.150;6.504;2023-03-24T07:31:32;30.45;;;4.70;;
52438;SDS011;38359;53.150;6.504;2023-03-24T07:42:01;35.65;;;4.65;;
52438;SDS011;38359;53.150;6.504;2023-03-24T07:52:27;35.15;;;4.90;;
52438;SDS011;38359;53.150;6.504;2023-03-24T08:02:54;29.08;;;4.45;;
52438;SDS011;38359;53.150;6.504;2023-03-24T08:13:20;32.53;;;4.50;;
52438;SDS011;38359;53.150;6.504;2023-03-24T08:23:46;29.25;;;6.20;;
52438;SDS011;38359;53.150;6.504;2023-03-24T08:34:12;45.38;;;6.10;;
52438;SDS011;38359;53.150;6.504;2023-03-24T08:44:37;37.15;;;6.35;;
52438;SDS011;38359;53.150;6.504;2023-03-24T08:55:03;36.85;;;5.00;;
52438;SDS011;38359;53.150;6.504;2023-03-24T09:05:29;37.40;;;5.15;;
52438;SDS011;38359;53.150;6.504;2023-03-24T09:15:59;38.33;;;4.97;;
52438;SDS011;38359;53.150;6.504;2023-03-24T09:26:27;33.60;;;5.05;;
52438;SDS011;38359;53.150;6.504;2023-03-24T09:36:54;28.25;;;4.00;;
52438;SDS011;38359;53.150;6.504;2023-03-24T09:58:01;33.97;;;4.40;;
52438;SDS011;38359;53.150;6.504;2023-03-24T10:19:16;24.80;;;4.13;;
52438;SDS011;38359;53.150;6.504;2023-03-24T10:30:17;18.98;;;3.28;;
52438;SDS011;38359;53.150;6.504;2023-03-24T10:40:58;24.75;;;4.55;;
52438;SDS011;38359;53.150;6.504;2023-03-24T10:51:26;25.95;;;4.32;;
52438;SDS011;38359;53.150;6.504;2023-03-24T11:01:57;21.33;;;3.83;;
52438;SDS011;38359;53.150;6.504;2023-03-24T11:12:25;34.28;;;4.97;;
52438;SDS011;38359;53.150;6.504;2023-03-24T11:23:02;19.52;;;3.45;;
52438;SDS011;38359;53.150;6.504;2023-03-24T11:33:34;25.70;;;3.83;;
52438;SDS011;38359;53.150;6.504;2023-03-24T11:54:47;28.92;;;4.85;;
52438;SDS011;38359;53.150;6.504;2023-03-24T12:05:20;21.02;;;3.28;;
52438;SDS011;38359;53.150;6.504;2023-03-24T12:26:54;16.55;;;3.15;;
52438;SDS011;38359;53.150;6.504;2023-03-24T13:09:36;19.50;;;3.38;;
52438;SDS011;38359;53.150;6.504;2023-03-24T13:20:51;17.88;;;3.28;;
52438;SDS011;38359;53.150;6.504;2023-03-24T13:31:23;16.05;;;3.55;;
52438;SDS011;38359;53.150;6.504;2023-03-24T13:41:53;21.25;;;3.65;;
52438;SDS011;38359;53.150;6.504;2023-03-24T13:52:25;18.15;;;3.33;;
52438;SDS011;38359;53.150;6.504;2023-03-24T14:24:44;22.30;;;3.55;;
52438;SDS011;38359;53.150;6.504;2023-03-24T14:35:30;15.18;;;3.17;;
52438;SDS011;38359;53.150;6.504;2023-03-24T14:46:01;21.50;;;3.50;;
52438;SDS011;38359;53.150;6.504;2023-03-24T14:56:32;16.48;;;2.72;;
52438;SDS011;38359;53.150;6.504;2023-03-24T15:07:04;19.35;;;3.38;;
52438;SDS011;38359;53.150;6.504;2023-03-24T15:17:30;19.27;;;3.72;;
52438;SDS011;38359;53.150;6.504;2023-03-24T15:27:56;17.67;;;2.50;;
52438;SDS011;38359;53.150;6.504;2023-03-24T15:38:31;19.15;;;3.33;;
52438;SDS011;38359;53.150;6.504;2023-03-24T15:48:58;18.17;;;3.40;;
52438;SDS011;38359;53.150;6.504;2023-03-24T15:59:31;16.17;;;3.30;;
52438;SDS011;38359;53.150;6.504;2023-03-24T16:10:01;12.77;;;2.45;;
52438;SDS011;38359;53.150;6.504;2023-03-24T16:20:30;16.48;;;2.00;;
52438;SDS011;38359;53.150;6.504;2023-03-24T16:30:57;8.18;;;2.03;;
52438;SDS011;38359;53.150;6.504;2023-03-24T16:41:26;16.50;;;2.92;;
52438;SDS011;38359;53.150;6.504;2023-03-24T16:51:52;12.32;;;2.20;;
52438;SDS011;38359;53.150;6.504;2023-03-24T17:02:18;19.75;;;3.35;;
52438;SDS011;38359;53.150;6.504;2023-03-24T17:12:45;21.90;;;3.55;;
52438;SDS011;38359;53.150;6.504;2023-03-24T17:23:12;23.75;;;3.45;;
52438;SDS011;38359;53.150;6.504;2023-03-24T17:33:41;27.38;;;3.25;;
52438;SDS011;38359;53.150;6.504;2023-03-24T17:44:07;18.92;;;3.15;;
52438;SDS011;38359;53.150;6.504;2023-03-24T17:54:33;21.38;;;2.67;;
52438;SDS011;38359;53.150;6.504;2023-03-24T18:04:58;18.05;;;3.17;;
52438;SDS011;38359;53.150;6.504;2023-03-24T18:15:24;20.50;;;3.08;;
52438;SDS011;38359;53.150;6.504;2023-03-24T18:25:57;17.98;;;3.28;;
52438;SDS011;38359;53.150;6.504;2023-03-24T18:36:28;20.33;;;2.53;;
52438;SDS011;38359;53.150;6.504;2023-03-24T18:46:55;19.20;;;2.78;;
52438;SDS011;38359;53.150;6.504;2023-03-24T18:57:20;18.75;;;2.80;;
52438;SDS011;38359;53.150;6.504;2023-03-24T19:07:46;27.75;;;2.97;;
52438;SDS011;38359;53.150;6.504;2023-03-24T19:18:13;19.40;;;3.35;;
52438;SDS011;38359;53.150;6.504;2023-03-24T19:28:39;25.60;;;4.75;;
52438;SDS011;38359;53.150;6.504;2023-03-24T19:39:05;19.42;;;2.67;;
52438;SDS011;38359;53.150;6.504;2023-03-24T19:49:32;21.15;;;2.55;;
52438;SDS011;38359;53.150;6.504;2023-03-24T19:59:58;17.55;;;2.30;;
52438;SDS011;38359;53.150;6.504;2023-03-24T20:10:24;26.13;;;4.57;;
52438;SDS011;38359;53.150;6.504;2023-03-24T20:20:50;22.02;;;2.97;;
52438;SDS011;38359;53.150;6.504;2023-03-24T20:31:18;21.02;;;4.28;;
52438;SDS011;38359;53.150;6.504;2023-03-24T20:41:44;17.30;;;2.67;;
52438;SDS011;38359;53.150;6.504;2023-03-24T20:52:11;20.67;;;2.50;;
52438;SDS011;38359;53.150;6.504;2023-03-24T21:02:39;17.20;;;2.40;;
52438;SDS011;38359;53.150;6.504;2023-03-24T21:13:06;15.55;;;2.17;;
52438;SDS011;38359;53.150;6.504;2023-03-24T21:23:32;20.52;;;2.33;;
52438;SDS011;38359;53.150;6.504;2023-03-24T21:33:58;22.02;;;2.42;;
52438;SDS011;38359;53.150;6.504;2023-03-24T21:44:24;15.20;;;2.40;;
52438;SDS011;38359;53.150;6.504;2023-03-24T21:54:50;18.90;;;2.42;;
52438;SDS011;38359;53.150;6.504;2023-03-24T22:05:21;18.80;;;3.22;;
52438;SDS011;38359;53.150;6.504;2023-03-24T22:16:00;16.77;;;2.67;;
52438;SDS011;38359;53.150;6.504;2023-03-24T22:26:27;16.42;;;2.17;;
52438;SDS011;38359;53.150;6.504;2023-03-24T22:36:53;17.83;;;3.10;;
52438;SDS011;38359;53.150;6.504;2023-03-24T22:47:19;19.20;;;2.55;;
52438;SDS011;38359;53.150;6.504;2023-03-24T22:57:45;18.42;;;2.67;;
52438;SDS011;38359;53.150;6.504;2023-03-24T23:08:11;21.20;;;2.90;;
52438;SDS011;38359;53.150;6.504;2023-03-24T23:18:39;23.50;;;3.35;;
52438;SDS011;38359;53.150;6.504;2023-03-24T23:29:05;19.85;;;3.03;;
52438;SDS011;38359;53.150;6.504;2023-03-24T23:39:30;20.05;;;3.50;;
52438;SDS011;38359;53.150;6.504;2023-03-24T23:49:58;20.23;;;3.20;;
